sensor_id;sensor_type;location;lat;lon;timestamp;pressure;altitude;pressure_sealevel;temperature;humidity
75424;BME280;64005;55.160;36.002;2023-03-04T00:00:10;97525.63;;;-1.54;76.02
75424;BME280;64005;55.160;36.002;2023-03-04T00:02:38;97518.72;;;-1.47;76.38
75424;BME280;64005;55.160;36.002;2023-03-04T00:05:06;97521.56;;;-1.38;75.97
75424;BME280;64005;55.160;36.002;2023-03-04T00:07:34;97517.97;;;-1.34;75.92
75424;BME280;64005;55.160;36.002;2023-03-04T00:10:02;97511.91;;;-1.31;76.49
75424;BME280;64005;55.160;36.002;2023-03-04T00:12:29;97513.75;;;-1.26;75.79
75424;BME280;64005;55.160;36.002;2023-03-04T00:14:58;97504.16;;;-1.24;76.32
75424;BME280;64005;55.160;36.002;2023-03-04T00:17:26;97512.88;;;-1.22;76.37
75424;BME280;64005;55.160;36.002;2023-03-04T00:19:54;97498.44;;;-1.22;76.53
75424;BME280;64005;55.160;36.002;2023-03-04T00:22:22;97502.78;;;-1.21;76.03
75424;BME280;64005;55.160;36.002;2023-03-04T00:24:49;97494.28;;;-1.20;76.20
75424;BME280;64005;55.160;36.002;2023-03-04T00:27:17;97496.44;;;-1.16;76.21
75424;BME280;64005;55.160;36.002;2023-03-04T00:29:44;97492.50;;;-1.10;75.79
75424;BME280;64005;55.160;36.002;2023-03-04T00:32:13;97484.03;;;-1.09;75.57
75424;BME280;64005;55.160;36.002;2023-03-04T00:34:43;97481.50;;;-1.05;76.23
75424;BME280;64005;55.160;36.002;2023-03-04T00:37:10;97468.38;;;-1.03;76.21
75424;BME280;64005;55.160;36.002;2023-03-04T00:39:38;97470.28;;;-1.04;75.77
75424;BME280;64005;55.160;36.002;2023-03-04T00:42:05;97470.59;;;-1.05;75.88
75424;BME280;64005;55.160;36.002;2023-03-04T00:44:33;97464.84;;;-1.04;76.42
75424;BME280;64005;55.160;36.002;2023-03-04T00:47:04;97469.47;;;-1.04;76.49
75424;BME280;64005;55.160;36.002;2023-03-04T00:49:33;97466.47;;;-1.03;76.10
75424;BME280;64005;55.160;36.002;2023-03-04T00:52:00;97470.53;;;-1.00;76.65
75424;BME280;64005;55.160;36.002;2023-03-04T00:54:28;97477.56;;;-0.99;75.71
75424;BME280;64005;55.160;36.002;2023-03-04T00:56:55;97468.59;;;-1.00;76.07
75424;BME280;64005;55.160;36.002;2023-03-04T00:59:23;97456.06;;;-1.01;76.54
75424;BME280;64005;55.160;36.002;2023-03-04T01:01:50;97454.81;;;-1.08;76.95
75424;BME280;64005;55.160;36.002;2023-03-04T01:04:18;97442.88;;;-1.12;77.02
75424;BME280;64005;55.160;36.002;2023-03-04T01:06:47;97438.56;;;-1.13;76.89
75424;BME280;64005;55.160;36.002;2023-03-04T01:09:14;97437.94;;;-1.10;76.27
75424;BME280;64005;55.160;36.002;2023-03-04T01:11:42;97437.03;;;-1.06;76.06
75424;BME280;64005;55.160;36.002;2023-03-04T01:14:09;97438.88;;;-1.01;76.56
75424;BME280;64005;55.160;36.002;2023-03-04T01:16:37;97430.06;;;-0.98;76.76
75424;BME280;64005;55.160;36.002;2023-03-04T01:19:04;97419.38;;;-0.95;76.10
75424;BME280;64005;55.160;36.002;2023-03-04T01:21:31;97418.47;;;-0.90;76.34
75424;BME280;64005;55.160;36.002;2023-03-04T01:24:00;97419.00;;;-0.88;75.66
75424;BME280;64005;55.160;36.002;2023-03-04T01:26:28;97417.38;;;-0.89;75.59
75424;BME280;64005;55.160;36.002;2023-03-04T01:28:55;97411.50;;;-0.83;76.09
75424;BME280;64005;55.160;36.002;2023-03-04T01:31:23;97411.00;;;-0.85;76.46
75424;BME280;64005;55.160;36.002;2023-03-04T01:33:50;97404.13;;;-0.82;76.17
75424;BME280;64005;55.160;36.002;2023-03-04T01:36:18;97399.50;;;-0.82;76.25
75424;BME280;64005;55.160;36.002;2023-03-04T01:38:45;97398.38;;;-0.81;76.20
75424;BME280;64005;55.160;36.002;2023-03-04T01:41:16;97384.50;;;-0.84;75.42
75424;BME280;64005;55.160;36.002;2023-03-04T01:43:45;97385.22;;;-0.78;76.16
75424;BME280;64005;55.160;36.002;2023-03-04T01:46:13;97359.63;;;-0.96;76.05
75424;BME280;64005;55.160;36.002;2023-03-04T01:48:42;97377.03;;;-0.78;76.16
75424;BME280;64005;55.160;36.002;2023-03-04T01:51:13;97382.81;;;-0.80;75.30
75424;BME280;64005;55.160;36.002;2023-03-04T01:53:42;97376.31;;;-0.84;76.24
75424;BME280;64005;55.160;36.002;2023-03-04T01:56:18;97369.97;;;-0.93;75.93
75424;BME280;64005;55.160;36.002;2023-03-04T01:59:06;97363.16;;;-1.09;75.57
75424;BME280;64005;55.160;36.002;2023-03-04T02:01:35;97354.75;;;-1.13;76.54
75424;BME280;64005;55.160;36.002;2023-03-04T02:04:03;97358.69;;;-1.19;76.27
75424;BME280;64005;55.160;36.002;2023-03-04T02:06:31;97350.69;;;-1.29;76.47
75424;BME280;64005;55.160;36.002;2023-03-04T02:08:58;97353.28;;;-1.38;76.28
75424;BME280;64005;55.160;36.002;2023-03-04T02:11:27;97353.19;;;-1.46;76.91
75424;BME280;64005;55.160;36.002;2023-03-04T02:13:55;97351.34;;;-1.51;76.57
75424;BME280;64005;55.160;36.002;2023-03-04T02:16:22;97346.28;;;-1.57;76.33
75424;BME280;64005;55.160;36.002;2023-03-04T02:18:50;97351.59;;;-1.66;76.71
75424;BME280;64005;55.160;36.002;2023-03-04T02:21:22;97286.13;;;-2.12;76.54
75424;BME280;64005;55.160;36.002;2023-03-04T02:23:58;97340.81;;;-1.90;77.16
75424;BME280;64005;55.160;36.002;2023-03-04T02:26:29;97333.19;;;-2.07;77.74
75424;BME280;64005;55.160;36.002;2023-03-04T02:28:58;97289.59;;;-2.44;77.55
75424;BME280;64005;55.160;36.002;2023-03-04T02:31:29;97317.88;;;-2.40;78.00
75424;BME280;64005;55.160;36.002;2023-03-04T02:34:00;97277.81;;;-2.77;77.59
75424;BME280;64005;55.160;36.002;2023-03-04T02:36:29;97309.75;;;-2.64;77.61
75424;BME280;64005;55.160;36.002;2023-03-04T02:39:01;97290.16;;;-2.85;78.21
75424;BME280;64005;55.160;36.002;2023-03-04T02:41:30;97291.56;;;-2.87;78.41
75424;BME280;64005;55.160;36.002;2023-03-04T02:43:58;97289.47;;;-2.95;78.36
75424;BME280;64005;55.160;36.002;2023-03-04T02:46:26;97289.91;;;-3.07;78.46
75424;BME280;64005;55.160;36.002;2023-03-04T02:48:53;97285.63;;;-3.13;78.60
75424;BME280;64005;55.160;36.002;2023-03-04T02:51:21;97283.53;;;-3.21;78.43
75424;BME280;64005;55.160;36.002;2023-03-04T02:53:48;97284.97;;;-3.29;78.92
75424;BME280;64005;55.160;36.002;2023-03-04T02:56:16;97282.59;;;-3.35;78.86
75424;BME280;64005;55.160;36.002;2023-03-04T02:58:45;97271.53;;;-3.44;78.80
75424;BME280;64005;55.160;36.002;2023-03-04T03:01:15;97268.00;;;-3.44;78.75
75424;BME280;64005;55.160;36.002;2023-03-04T03:03:43;97261.25;;;-3.47;78.85
75424;BME280;64005;55.160;36.002;2023-03-04T03:06:10;97264.25;;;-3.48;78.92
75424;BME280;64005;55.160;36.002;2023-03-04T03:08:38;97261.00;;;-3.50;79.10
75424;BME280;64005;55.160;36.002;2023-03-04T03:11:05;97245.31;;;-3.53;78.68
75424;BME280;64005;55.160;36.002;2023-03-04T03:13:34;97255.31;;;-3.49;78.83
75424;BME280;64005;55.160;36.002;2023-03-04T03:16:03;97259.84;;;-3.44;78.79
75424;BME280;64005;55.160;36.002;2023-03-04T03:18:31;97250.88;;;-3.40;78.58
75424;BME280;64005;55.160;36.002;2023-03-04T03:20:58;97244.63;;;-3.40;78.62
75424;BME280;64005;55.160;36.002;2023-03-04T03:23:25;97250.19;;;-3.32;78.51
75424;BME280;64005;55.160;36.002;2023-03-04T03:25:53;97246.09;;;-3.29;78.44
75424;BME280;64005;55.160;36.002;2023-03-04T03:28:20;97240.78;;;-3.15;78.36
75424;BME280;64005;55.160;36.002;2023-03-04T03:30:48;97242.72;;;-2.97;77.94
75424;BME280;64005;55.160;36.002;2023-03-04T03:33:17;97229.13;;;-2.78;77.86
75424;BME280;64005;55.160;36.002;2023-03-04T03:35:44;97233.25;;;-2.62;77.72
75424;BME280;64005;55.160;36.002;2023-03-04T03:38:12;97228.97;;;-2.50;77.54
75424;BME280;64005;55.160;36.002;2023-03-04T03:40:40;97213.66;;;-2.46;77.51
75424;BME280;64005;55.160;36.002;2023-03-04T03:43:07;97223.50;;;-2.31;77.37
75424;BME280;64005;55.160;36.002;2023-03-04T03:45:35;97213.84;;;-2.23;77.32
75424;BME280;64005;55.160;36.002;2023-03-04T03:48:03;97215.69;;;-2.19;77.30
75424;BME280;64005;55.160;36.002;2023-03-04T03:50:32;97174.78;;;-2.32;77.42
75424;BME280;64005;55.160;36.002;2023-03-04T03:53:00;97203.22;;;-2.06;77.35
75424;BME280;64005;55.160;36.002;2023-03-04T03:55:28;97194.97;;;-2.01;77.26
75424;BME280;64005;55.160;36.002;2023-03-04T03:57:55;97194.06;;;-1.96;77.22
75424;BME280;64005;55.160;36.002;2023-03-04T04:00:23;97193.97;;;-1.91;77.27
75424;BME280;64005;55.160;36.002;2023-03-04T04:02:51;97189.53;;;-1.87;77.38
75424;BME280;64005;55.160;36.002;2023-03-04T04:05:19;97183.47;;;-1.84;77.00
75424;BME280;64005;55.160;36.002;2023-03-04T04:07:48;97178.53;;;-1.82;76.99
75424;BME280;64005;55.160;36.002;2023-03-04T04:10:16;97169.25;;;-1.81;77.26
75424;BME280;64005;55.160;36.002;2023-03-04T04:12:43;97177.53;;;-1.73;77.30
75424;BME280;64005;55.160;36.002;2023-03-04T04:15:11;97174.22;;;-1.70;76.87
75424;BME280;64005;55.160;36.002;2023-03-04T04:17:39;97171.69;;;-1.66;77.52
75424;BME280;64005;55.160;36.002;2023-03-04T04:20:08;97164.53;;;-1.62;77.42
75424;BME280;64005;55.160;36.002;2023-03-04T04:22:35;97158.97;;;-1.57;77.26
75424;BME280;64005;55.160;36.002;2023-03-04T04:25:06;97160.00;;;-1.53;77.21
75424;BME280;64005;55.160;36.002;2023-03-04T04:27:35;97158.78;;;-1.47;76.36
75424;BME280;64005;55.160;36.002;2023-03-04T04:30:04;97085.50;;;-1.89;76.33
75424;BME280;64005;55.160;36.002;2023-03-04T04:32:32;97151.91;;;-1.44;76.58
75424;BME280;64005;55.160;36.002;2023-03-04T04:34:59;97154.50;;;-1.39;76.58
75424;BME280;64005;55.160;36.002;2023-03-04T04:37:29;97144.13;;;-1.37;76.94
75424;BME280;64005;55.160;36.002;2023-03-04T04:39:56;97152.19;;;-1.32;76.40
75424;BME280;64005;55.160;36.002;2023-03-04T04:42:26;97151.59;;;-1.29;76.29
75424;BME280;64005;55.160;36.002;2023-03-04T04:44:54;97144.22;;;-1.29;76.35
75424;BME280;64005;55.160;36.002;2023-03-04T04:47:22;97145.50;;;-1.26;76.28
75424;BME280;64005;55.160;36.002;2023-03-04T04:49:50;97147.94;;;-1.25;76.91
75424;BME280;64005;55.160;36.002;2023-03-04T04:52:17;97143.97;;;-1.18;76.25
75424;BME280;64005;55.160;36.002;2023-03-04T04:54:45;97139.22;;;-1.13;76.86
75424;BME280;64005;55.160;36.002;2023-03-04T04:57:12;97137.50;;;-1.09;76.20
75424;BME280;64005;55.160;36.002;2023-03-04T04:59:41;97143.38;;;-1.02;76.68
75424;BME280;64005;55.160;36.002;2023-03-04T05:02:08;97136.16;;;-0.98;76.63
75424;BME280;64005;55.160;36.002;2023-03-04T05:04:36;97133.31;;;-0.93;76.54
75424;BME280;64005;55.160;36.002;2023-03-04T05:07:03;97129.69;;;-0.88;75.76
75424;BME280;64005;55.160;36.002;2023-03-04T05:09:31;97142.19;;;-0.73;76.47
75424;BME280;64005;55.160;36.002;2023-03-04T05:11:58;97138.09;;;-0.62;75.83
75424;BME280;64005;55.160;36.002;2023-03-04T05:14:26;97136.41;;;-0.50;75.51
75424;BME280;64005;55.160;36.002;2023-03-04T05:16:55;97134.22;;;-0.39;75.70
75424;BME280;64005;55.160;36.002;2023-03-04T05:19:22;97127.03;;;-0.35;75.35
75424;BME280;64005;55.160;36.002;2023-03-04T05:21:50;97121.25;;;-0.33;75.86
75424;BME280;64005;55.160;36.002;2023-03-04T05:24:17;97115.47;;;-0.32;75.77
75424;BME280;64005;55.160;36.002;2023-03-04T05:26:45;97114.66;;;-0.32;75.98
75424;BME280;64005;55.160;36.002;2023-03-04T05:29:12;97116.47;;;-0.28;76.02
75424;BME280;64005;55.160;36.002;2023-03-04T05:31:39;97107.47;;;-0.28;75.71
75424;BME280;64005;55.160;36.002;2023-03-04T05:34:08;97094.72;;;-0.33;75.91
75424;BME280;64005;55.160;36.002;2023-03-04T05:36:35;97097.53;;;-0.24;75.60
75424;BME280;64005;55.160;36.002;2023-03-04T05:39:03;97096.41;;;-0.23;76.19
75424;BME280;64005;55.160;36.002;2023-03-04T05:41:30;97093.06;;;-0.20;75.72
75424;BME280;64005;55.160;36.002;2023-03-04T05:43:58;97079.88;;;-0.18;75.59
75424;BME280;64005;55.160;36.002;2023-03-04T05:46:26;97089.88;;;-0.14;75.21
75424;BME280;64005;55.160;36.002;2023-03-04T05:48:53;97093.09;;;-0.12;75.31
75424;BME280;64005;55.160;36.002;2023-03-04T05:51:22;97086.81;;;-0.12;75.46
75424;BME280;64005;55.160;36.002;2023-03-04T05:53:50;97078.63;;;-0.12;75.58
75424;BME280;64005;55.160;36.002;2023-03-04T05:56:18;97060.38;;;-0.25;75.93
75424;BME280;64005;55.160;36.002;2023-03-04T05:58:46;97069.59;;;-0.21;75.46
75424;BME280;64005;55.160;36.002;2023-03-04T06:01:14;97068.22;;;-0.02;75.97
75424;BME280;64005;55.160;36.002;2023-03-04T06:03:42;97068.31;;;0.24;75.61
75424;BME280;64005;55.160;36.002;2023-03-04T06:06:09;97057.28;;;0.55;74.70
75424;BME280;64005;55.160;36.002;2023-03-04T06:08:38;97055.41;;;0.64;73.83
75424;BME280;64005;55.160;36.002;2023-03-04T06:11:06;97056.66;;;0.67;73.91
75424;BME280;64005;55.160;36.002;2023-03-04T06:13:34;97066.38;;;0.73;74.80
75424;BME280;64005;55.160;36.002;2023-03-04T06:16:03;97051.69;;;0.69;74.12
75424;BME280;64005;55.160;36.002;2023-03-04T06:18:30;97047.03;;;0.69;74.08
75424;BME280;64005;55.160;36.002;2023-03-04T06:20:59;97042.34;;;0.70;73.92
75424;BME280;64005;55.160;36.002;2023-03-04T06:23:27;97034.97;;;0.79;74.59
75424;BME280;64005;55.160;36.002;2023-03-04T06:25:57;97032.88;;;0.85;74.02
75424;BME280;64005;55.160;36.002;2023-03-04T06:28:25;97027.72;;;0.92;73.64
75424;BME280;64005;55.160;36.002;2023-03-04T06:30:54;97027.41;;;1.02;73.19
75424;BME280;64005;55.160;36.002;2023-03-04T06:33:22;97022.72;;;1.19;73.23
75424;BME280;64005;55.160;36.002;2023-03-04T06:35:53;97025.75;;;1.27;72.92
75424;BME280;64005;55.160;36.002;2023-03-04T06:38:21;97014.81;;;1.35;72.92
75424;BME280;64005;55.160;36.002;2023-03-04T06:40:49;97022.34;;;1.47;72.92
75424;BME280;64005;55.160;36.002;2023-03-04T06:43:18;97007.34;;;1.53;72.61
75424;BME280;64005;55.160;36.002;2023-03-04T06:45:46;97002.94;;;1.69;72.23
75424;BME280;64005;55.160;36.002;2023-03-04T06:48:13;97002.63;;;1.79;72.06
75424;BME280;64005;55.160;36.002;2023-03-04T06:50:41;97007.09;;;1.84;71.41
75424;BME280;64005;55.160;36.002;2023-03-04T06:53:08;96995.97;;;1.80;71.55
75424;BME280;64005;55.160;36.002;2023-03-04T06:55:36;96989.16;;;1.86;71.61
75424;BME280;64005;55.160;36.002;2023-03-04T06:58:03;96986.44;;;1.86;71.29
75424;BME280;64005;55.160;36.002;2023-03-04T07:00:32;96980.81;;;1.83;71.75
75424;BME280;64005;55.160;36.002;2023-03-04T07:02:59;96995.47;;;1.87;71.53
75424;BME280;64005;55.160;36.002;2023-03-04T07:05:27;96978.38;;;1.90;71.50
75424;BME280;64005;55.160;36.002;2023-03-04T07:07:55;96981.44;;;1.88;71.23
75424;BME280;64005;55.160;36.002;2023-03-04T07:10:22;96969.84;;;1.83;70.90
75424;BME280;64005;55.160;36.002;2023-03-04T07:12:50;96971.31;;;1.80;71.07
75424;BME280;64005;55.160;36.002;2023-03-04T07:15:20;96971.97;;;1.77;71.33
75424;BME280;64005;55.160;36.002;2023-03-04T07:17:49;96964.41;;;1.74;71.32
75424;BME280;64005;55.160;36.002;2023-03-04T07:20:17;96966.81;;;1.76;71.00
75424;BME280;64005;55.160;36.002;2023-03-04T07:22:45;96956.16;;;1.83;70.91
75424;BME280;64005;55.160;36.002;2023-03-04T07:25:12;96953.09;;;1.84;71.05
75424;BME280;64005;55.160;36.002;2023-03-04T07:27:40;96941.81;;;1.77;71.41
75424;BME280;64005;55.160;36.002;2023-03-04T07:30:09;96943.75;;;1.77;71.24
75424;BME280;64005;55.160;36.002;2023-03-04T07:32:36;96941.31;;;1.84;70.72
75424;BME280;64005;55.160;36.002;2023-03-04T07:35:06;96935.13;;;1.95;70.82
75424;BME280;64005;55.160;36.002;2023-03-04T07:37:33;96937.81;;;2.04;69.98
75424;BME280;64005;55.160;36.002;2023-03-04T07:40:01;96907.38;;;1.97;70.34
75424;BME280;64005;55.160;36.002;2023-03-04T07:42:29;96915.94;;;1.95;70.60
75424;BME280;64005;55.160;36.002;2023-03-04T07:44:57;96931.00;;;2.10;70.05
75424;BME280;64005;55.160;36.002;2023-03-04T07:47:26;96916.75;;;2.17;70.38
75424;BME280;64005;55.160;36.002;2023-03-04T07:49:53;96905.13;;;2.20;70.48
75424;BME280;64005;55.160;36.002;2023-03-04T07:52:23;96895.28;;;2.39;70.05
75424;BME280;64005;55.160;36.002;2023-03-04T07:54:50;96893.22;;;2.57;69.67
75424;BME280;64005;55.160;36.002;2023-03-04T07:57:18;96896.34;;;2.68;69.37
75424;BME280;64005;55.160;36.002;2023-03-04T07:59:45;96856.75;;;2.57;69.05
75424;BME280;64005;55.160;36.002;2023-03-04T08:02:13;96884.97;;;2.78;69.15
75424;BME280;64005;55.160;36.002;2023-03-04T08:04:40;96879.38;;;2.87;69.07
75424;BME280;64005;55.160;36.002;2023-03-04T08:07:08;96875.19;;;3.01;68.52
75424;BME280;64005;55.160;36.002;2023-03-04T08:09:37;96876.59;;;3.07;68.62
75424;BME280;64005;55.160;36.002;2023-03-04T08:12:04;96882.41;;;3.06;68.35
75424;BME280;64005;55.160;36.002;2023-03-04T08:14:32;96869.22;;;2.99;68.51
75424;BME280;64005;55.160;36.002;2023-03-04T08:17:00;96872.19;;;2.94;69.11
75424;BME280;64005;55.160;36.002;2023-03-04T08:19:27;96867.09;;;3.05;68.45
75424;BME280;64005;55.160;36.002;2023-03-04T08:21:55;96838.44;;;2.94;68.11
75424;BME280;64005;55.160;36.002;2023-03-04T08:24:22;96868.38;;;3.19;68.11
75424;BME280;64005;55.160;36.002;2023-03-04T08:26:51;96863.59;;;3.29;68.11
75424;BME280;64005;55.160;36.002;2023-03-04T08:29:20;96851.69;;;3.37;67.76
75424;BME280;64005;55.160;36.002;2023-03-04T08:31:49;96849.63;;;3.46;67.33
75424;BME280;64005;55.160;36.002;2023-03-04T08:34:17;96837.72;;;3.54;67.54
75424;BME280;64005;55.160;36.002;2023-03-04T08:36:45;96842.31;;;3.50;67.65
75424;BME280;64005;55.160;36.002;2023-03-04T08:39:14;96795.81;;;3.20;67.66
75424;BME280;64005;55.160;36.002;2023-03-04T08:41:43;96826.88;;;3.45;67.35
75424;BME280;64005;55.160;36.002;2023-03-04T08:44:12;96818.25;;;3.47;67.37
75424;BME280;64005;55.160;36.002;2023-03-04T08:46:41;96819.63;;;3.41;67.51
75424;BME280;64005;55.160;36.002;2023-03-04T08:49:10;96811.84;;;3.43;67.47
75424;BME280;64005;55.160;36.002;2023-03-04T08:51:39;96806.22;;;3.39;67.61
75424;BME280;64005;55.160;36.002;2023-03-04T08:54:06;96806.47;;;3.34;67.77
75424;BME280;64005;55.160;36.002;2023-03-04T08:56:34;96806.22;;;3.15;67.92
75424;BME280;64005;55.160;36.002;2023-03-04T08:59:01;96796.13;;;3.07;67.92
75424;BME280;64005;55.160;36.002;2023-03-04T09:01:30;96792.00;;;3.01;67.81
75424;BME280;64005;55.160;36.002;2023-03-04T09:03:57;96793.63;;;3.14;68.08
75424;BME280;64005;55.160;36.002;2023-03-04T09:06:24;96792.63;;;3.18;68.38
75424;BME280;64005;55.160;36.002;2023-03-04T09:08:52;96778.50;;;3.08;68.32
75424;BME280;64005;55.160;36.002;2023-03-04T09:11:19;96786.97;;;3.03;68.33
75424;BME280;64005;55.160;36.002;2023-03-04T09:13:47;96776.91;;;2.95;68.46
75424;BME280;64005;55.160;36.002;2023-03-04T09:16:16;96776.88;;;2.83;68.77
75424;BME280;64005;55.160;36.002;2023-03-04T09:18:45;96765.97;;;2.74;68.76
75424;BME280;64005;55.160;36.002;2023-03-04T09:21:13;96763.63;;;2.85;68.82
75424;BME280;64005;55.160;36.002;2023-03-04T09:23:41;96755.16;;;2.90;68.60
75424;BME280;64005;55.160;36.002;2023-03-04T09:26:16;96751.13;;;2.87;68.58
75424;BME280;64005;55.160;36.002;2023-03-04T09:28:43;96744.50;;;2.88;68.85
75424;BME280;64005;55.160;36.002;2023-03-04T09:31:12;96748.97;;;2.93;68.95
75424;BME280;64005;55.160;36.002;2023-03-04T09:33:40;96734.00;;;2.90;68.78
75424;BME280;64005;55.160;36.002;2023-03-04T09:36:11;96739.47;;;2.90;68.45
75424;BME280;64005;55.160;36.002;2023-03-04T09:38:40;96725.84;;;2.82;68.67
75424;BME280;64005;55.160;36.002;2023-03-04T09:41:09;96716.56;;;2.74;68.81
75424;BME280;64005;55.160;36.002;2023-03-04T09:43:38;96709.72;;;2.80;69.00
75424;BME280;64005;55.160;36.002;2023-03-04T09:46:09;96706.06;;;2.88;68.75
75424;BME280;64005;55.160;36.002;2023-03-04T09:48:43;96707.44;;;2.94;68.66
75424;BME280;64005;55.160;36.002;2023-03-04T09:51:20;96691.91;;;2.98;68.76
75424;BME280;64005;55.160;36.002;2023-03-04T09:53:57;96675.63;;;2.81;69.07
75424;BME280;64005;55.160;36.002;2023-03-04T09:56:26;96682.84;;;2.98;68.92
75424;BME280;64005;55.160;36.002;2023-03-04T09:59:01;96686.50;;;3.14;68.52
75424;BME280;64005;55.160;36.002;2023-03-04T10:01:35;96665.69;;;3.25;68.36
75424;BME280;64005;55.160;36.002;2023-03-04T10:04:10;96676.28;;;3.51;68.05
75424;BME280;64005;55.160;36.002;2023-03-04T10:06:41;96670.81;;;3.67;67.96
75424;BME280;64005;55.160;36.002;2023-03-04T10:09:15;96654.09;;;3.72;67.35
75424;BME280;64005;55.160;36.002;2023-03-04T10:11:44;96656.69;;;3.80;67.07
75424;BME280;64005;55.160;36.002;2023-03-04T10:14:26;96583.81;;;3.31;67.41
75424;BME280;64005;55.160;36.002;2023-03-04T10:17:01;96643.31;;;3.79;67.24
75424;BME280;64005;55.160;36.002;2023-03-04T10:19:37;96631.84;;;3.77;67.52
75424;BME280;64005;55.160;36.002;2023-03-04T10:22:18;96632.19;;;3.75;67.32
75424;BME280;64005;55.160;36.002;2023-03-04T10:24:47;96632.13;;;3.72;67.11
75424;BME280;64005;55.160;36.002;2023-03-04T10:27:18;96561.13;;;3.34;67.17
75424;BME280;64005;55.160;36.002;2023-03-04T10:29:46;96626.97;;;3.70;67.05
75424;BME280;64005;55.160;36.002;2023-03-04T10:32:15;96616.16;;;3.77;67.09
75424;BME280;64005;55.160;36.002;2023-03-04T10:34:44;96617.56;;;3.71;67.36
75424;BME280;64005;55.160;36.002;2023-03-04T10:37:13;96606.19;;;3.73;66.96
75424;BME280;64005;55.160;36.002;2023-03-04T10:39:43;96586.59;;;3.74;67.09
75424;BME280;64005;55.160;36.002;2023-03-04T10:42:27;96542.53;;;3.43;66.87
75424;BME280;64005;55.160;36.002;2023-03-04T10:45:02;96590.63;;;3.77;67.13
75424;BME280;64005;55.160;36.002;2023-03-04T10:47:31;96559.09;;;3.58;66.99
75424;BME280;64005;55.160;36.002;2023-03-04T10:50:01;96588.06;;;3.84;67.11
75424;BME280;64005;55.160;36.002;2023-03-04T10:52:34;96575.66;;;3.90;66.47
75424;BME280;64005;55.160;36.002;2023-03-04T10:55:05;96545.16;;;3.67;66.63
75424;BME280;64005;55.160;36.002;2023-03-04T10:57:42;96562.81;;;3.66;66.71
75424;BME280;64005;55.160;36.002;2023-03-04T11:00:25;96558.22;;;3.70;67.39
75424;BME280;64005;55.160;36.002;2023-03-04T11:03:21;96560.38;;;3.77;67.13
75424;BME280;64005;55.160;36.002;2023-03-04T11:05:49;96548.66;;;3.80;67.21
75424;BME280;64005;55.160;36.002;2023-03-04T11:08:22;96537.91;;;3.75;67.13
75424;BME280;64005;55.160;36.002;2023-03-04T11:10:50;96538.03;;;3.78;67.37
75424;BME280;64005;55.160;36.002;2023-03-04T11:13:20;96538.84;;;3.79;67.17
75424;BME280;64005;55.160;36.002;2023-03-04T11:15:51;96528.00;;;3.70;67.05
75424;BME280;64005;55.160;36.002;2023-03-04T11:18:22;96498.44;;;3.51;67.23
75424;BME280;64005;55.160;36.002;2023-03-04T11:20:53;96535.19;;;3.90;66.39
75424;BME280;64005;55.160;36.002;2023-03-04T11:23:31;96525.63;;;4.00;66.93
75424;BME280;64005;55.160;36.002;2023-03-04T11:26:04;96520.81;;;4.13;66.88
75424;BME280;64005;55.160;36.002;2023-03-04T11:28:40;96526.34;;;3.97;66.56
75424;BME280;64005;55.160;36.002;2023-03-04T11:31:14;96453.47;;;3.44;67.34
75424;BME280;64005;55.160;36.002;2023-03-04T11:33:46;96513.09;;;3.87;67.27
75424;BME280;64005;55.160;36.002;2023-03-04T11:36:25;96496.06;;;3.81;66.92
75424;BME280;64005;55.160;36.002;2023-03-04T11:38:57;96489.41;;;3.82;67.42
75424;BME280;64005;55.160;36.002;2023-03-04T11:41:29;96501.28;;;3.86;67.09
75424;BME280;64005;55.160;36.002;2023-03-04T11:43:58;96493.22;;;3.78;67.02
75424;BME280;64005;55.160;36.002;2023-03-04T11:46:44;96488.09;;;3.76;67.39
75424;BME280;64005;55.160;36.002;2023-03-04T11:49:32;96463.91;;;3.54;67.71
75424;BME280;64005;55.160;36.002;2023-03-04T11:52:11;96484.00;;;3.70;67.65
75424;BME280;64005;55.160;36.002;2023-03-04T11:54:56;96480.00;;;3.68;67.80
75424;BME280;64005;55.160;36.002;2023-03-04T11:57:28;96472.09;;;3.50;68.36
75424;BME280;64005;55.160;36.002;2023-03-04T12:00:15;96469.34;;;3.50;67.93
75424;BME280;64005;55.160;36.002;2023-03-04T12:02:56;96469.88;;;3.56;68.04
75424;BME280;64005;55.160;36.002;2023-03-04T12:05:40;96465.53;;;3.55;67.64
75424;BME280;64005;55.160;36.002;2023-03-04T12:08:23;96456.66;;;3.62;67.52
75424;BME280;64005;55.160;36.002;2023-03-04T12:11:01;96461.66;;;3.72;67.17
75424;BME280;64005;55.160;36.002;2023-03-04T12:13:41;96445.88;;;3.84;66.90
75424;BME280;64005;55.160;36.002;2023-03-04T12:16:20;96445.16;;;3.87;67.59
75424;BME280;64005;55.160;36.002;2023-03-04T12:19:00;96440.28;;;3.96;66.90
75424;BME280;64005;55.160;36.002;2023-03-04T12:21:45;96436.91;;;4.03;67.38
75424;BME280;64005;55.160;36.002;2023-03-04T12:24:46;96430.66;;;4.22;67.46
75424;BME280;64005;55.160;36.002;2023-03-04T12:27:25;96430.25;;;4.39;65.94
75424;BME280;64005;55.160;36.002;2023-03-04T12:29:57;96438.81;;;4.69;65.74
75424;BME280;64005;55.160;36.002;2023-03-04T12:32:36;96436.72;;;4.82;65.53
75424;BME280;64005;55.160;36.002;2023-03-04T12:35:23;96420.22;;;4.66;65.89
75424;BME280;64005;55.160;36.002;2023-03-04T12:40:48;96418.66;;;4.30;66.63
75424;BME280;64005;55.160;36.002;2023-03-04T12:43:32;96404.13;;;4.14;66.69
75424;BME280;64005;55.160;36.002;2023-03-04T12:46:07;96377.19;;;3.88;66.92
75424;BME280;64005;55.160;36.002;2023-03-04T12:48:40;96412.03;;;3.99;67.09
75424;BME280;64005;55.160;36.002;2023-03-04T12:51:11;96410.03;;;3.81;67.77
75424;BME280;64005;55.160;36.002;2023-03-04T12:53:48;96403.53;;;3.73;67.67
75424;BME280;64005;55.160;36.002;2023-03-04T12:56:22;96333.25;;;3.25;67.71
75424;BME280;64005;55.160;36.002;2023-03-04T12:58:53;96401.06;;;3.52;68.39
75424;BME280;64005;55.160;36.002;2023-03-04T13:01:25;96390.41;;;3.35;68.37
75424;BME280;64005;55.160;36.002;2023-03-04T13:03:58;96364.41;;;3.01;68.95
75424;BME280;64005;55.160;36.002;2023-03-04T13:06:33;96382.75;;;2.97;69.21
75424;BME280;64005;55.160;36.002;2023-03-04T13:09:09;96385.19;;;2.87;69.08
75424;BME280;64005;55.160;36.002;2023-03-04T13:11:43;96376.66;;;2.76;69.95